Time;durP1;ratioP1;P1;durP2;ratioP2;P2;SDS_P1;SDS_P2;PMS_P1;PMS_P2;Temp;Humidity;BMP_temperature;BMP_pressure;BME280_temperature;BME280_humidity;BME280_pressure;Samples;Min_cycle;Max_cycle;Signal;HPM_P1;HPM_P2
2023/07/12 00:01:17;;;;;;;1999.90;999.90;;;;;;;25.06;78.66;97834.41;5089998;28;20103;-73
2023/07/12 00:03:42;;;;;;;1999.90;999.90;;;;;;;24.99;78.63;97821.16;5091262;28;20020;-72
2023/07/12 00:06:27;;;;;;;1999.90;999.90;;;;;;;25.03;77.97;97830.38;5091362;28;20027;-73
2023/07/12 00:08:52;;;;;;;1999.90;999.90;;;;;;;25.00;77.76;97817.97;5091207;28;20024;-73
2023/07/12 00:11:21;;;;;;;1999.90;999.90;;;;;;;25.14;76.77;97816.41;5091173;28;20043;-73
2023/07/12 00:13:47;;;;;;;1999.90;999.90;;;;;;;25.14;76.65;97822.81;5089690;28;20384;-72
2023/07/12 00:16:26;;;;;;;1999.90;999.90;;;;;;;25.23;75.34;97822.44;5091439;28;20435;-72
2023/07/12 00:18:53;;;;;;;1999.90;999.90;;;;;;;25.17;75.39;97810.84;5091570;28;20031;-76
2023/07/12 00:21:22;;;;;;;1999.90;999.90;;;;;;;25.08;76.12;97821.59;5091217;28;20028;-73
2023/07/12 00:23:50;;;;;;;1999.90;999.90;;;;;;;24.94;76.67;97805.53;5093434;28;20548;-75
2023/07/12 00:26:30;;;;;;;1999.90;999.90;;;;;;;24.88;77.35;97795.91;5093389;28;20024;-74
2023/07/12 00:28:58;;;;;;;1999.90;999.90;;;;;;;24.95;76.71;97815.56;5090739;28;20048;-72
2023/07/12 00:31:24;;;;;;;1999.90;999.90;;;;;;;24.96;76.49;97816.34;5090920;28;20050;-72
2023/07/12 00:33:50;;;;;;;1999.90;999.90;;;;;;;24.91;76.77;97814.72;5089697;28;20047;-74
2023/07/12 00:36:22;;;;;;;1999.90;999.90;;;;;;;24.95;76.66;97809.94;5090744;28;20552;-73
2023/07/12 00:38:48;;;;;;;1999.90;999.90;;;;;;;24.90;76.38;97798.34;5090681;28;20511;-73
2023/07/12 00:41:27;;;;;;;1999.90;999.90;;;;;;;24.81;76.84;97809.06;5090912;28;20016;-75
2023/07/12 00:44:04;;;;;;;1999.90;999.90;;;;;;;24.71;78.60;97812.59;5091351;28;20133;-77
2023/07/12 00:46:39;;;;;;;1999.90;999.90;;;;;;;24.83;78.69;97812.28;5075067;28;20389;-74
2023/07/12 00:49:05;;;;;;;1999.90;999.90;;;;;;;24.81;78.46;97793.06;5090669;28;20046;-73
2023/07/12 00:51:46;;;;;;;1999.90;999.90;;;;;;;24.76;79.13;97801.03;5093654;28;20103;-80
2023/07/12 00:54:15;;;;;;;1999.90;999.90;;;;;;;24.75;78.94;97789.03;5093050;28;20542;-74
2023/07/12 00:56:41;;;;;;;1999.90;999.90;;;;;;;24.71;79.86;97795.81;5091325;28;20095;-75
2023/07/12 00:59:15;;;;;;;1999.90;999.90;;;;;;;24.58;81.57;97784.16;5091276;28;20107;-73
2023/07/12 01:01:41;;;;;;;1999.90;999.90;;;;;;;24.46;81.77;97776.88;5089922;28;20031;-71
2023/07/12 01:04:08;;;;;;;1999.90;999.90;;;;;;;24.45;82.70;97783.69;5089798;28;20040;-72
2023/07/12 01:06:34;;;;;;;1999.90;999.90;;;;;;;24.26;84.63;97767.19;5091049;28;20028;-74
2023/07/12 01:09:08;;;;;;;1999.90;999.90;;;;;;;24.33;85.45;97763.63;5090865;28;20396;-74
2023/07/12 01:11:34;;;;;;;1999.90;999.90;;;;;;;24.23;86.16;97770.75;5091390;28;20058;-74
2023/07/12 01:13:59;;;;;;;1999.90;999.90;;;;;;;24.21;86.92;97773.16;5091001;28;20510;-75
2023/07/12 01:16:25;;;;;;;1999.90;999.90;;;;;;;24.12;87.37;97769.09;5090754;28;20028;-74
2023/07/12 01:18:50;;;;;;;1999.90;999.90;;;;;;;24.14;88.03;97791.88;5090773;28;20564;-74
2023/07/12 01:21:24;;;;;;;1999.90;999.90;;;;;;;24.17;88.44;97783.50;5090963;28;20027;-76
2023/07/12 01:23:50;;;;;;;1999.90;999.90;;;;;;;24.23;87.85;97784.75;5090797;28;20024;-72
2023/07/12 01:26:34;;;;;;;1999.90;999.90;;;;;;;24.22;87.64;97791.50;5089717;28;20103;-74
2023/07/12 01:29:04;;;;;;;1999.90;999.90;;;;;;;24.23;87.58;97795.94;5090295;28;20499;-73
2023/07/12 01:31:30;;;;;;;1999.90;999.90;;;;;;;24.14;87.48;97781.47;5089417;28;20408;-71
2023/07/12 01:33:56;;;;;;;1999.90;999.90;;;;;;;24.15;87.14;97787.88;5090999;28;20067;-72
2023/07/12 01:36:23;;;;;;;1999.90;999.90;;;;;;;24.28;87.10;97801.16;5090579;28;20035;-72
2023/07/12 01:38:53;;;;;;;1999.90;999.90;;;;;;;24.28;86.59;97795.53;5091060;28;20031;-75
2023/07/12 01:41:19;;;;;;;1999.90;999.90;;;;;;;24.29;86.96;97794.38;5090815;28;20553;-72
2023/07/12 01:43:45;;;;;;;1999.90;999.90;;;;;;;24.18;88.32;97804.69;5090804;28;20109;-73
2023/07/12 01:46:11;;;;;;;1999.90;999.90;;;;;;;24.07;89.36;97798.16;5093888;28;20032;-71
2023/07/12 01:48:36;;;;;;;1999.90;999.90;;;;;;;23.94;91.35;97803.25;5094514;28;20024;-76
2023/07/12 01:51:03;;;;;;;1999.90;999.90;;;;;;;23.81;93.66;97815.91;5094565;28;20122;-74
2023/07/12 01:53:29;;;;;;;1999.90;999.90;;;;;;;23.76;95.48;97821.06;5094698;28;20388;-74
2023/07/12 01:55:54;;;;;;;1999.90;999.90;;;;;;;23.67;97.72;97817.78;5094560;28;20039;-73
2023/07/12 01:58:20;;;;;;;1999.90;999.90;;;;;;;23.78;96.76;97813.09;5093200;28;20054;-74
2023/07/12 02:00:46;;;;;;;1999.90;999.90;;;;;;;23.77;97.38;97815.09;5092829;28;20073;-73
2023/07/12 02:03:12;;;;;;;1999.90;999.90;;;;;;;23.73;97.95;97827.41;5093023;28;20036;-74
2023/07/12 02:05:37;;;;;;;1999.90;999.90;;;;;;;23.63;98.90;97834.50;5094902;28;20468;-74
2023/07/12 02:08:02;;;;;;;1999.90;999.90;;;;;;;23.62;98.32;97827.31;5094888;28;20032;-74
2023/07/12 02:10:28;;;;;;;1999.90;999.90;;;;;;;23.54;99.37;97817.25;5095358;28;20028;-74
2023/07/12 02:12:53;;;;;;;1999.90;999.90;;;;;;;23.63;98.46;97839.28;5094671;28;20031;-75
2023/07/12 02:15:19;;;;;;;1999.90;999.90;;;;;;;23.65;99.23;97839.72;5094596;28;20476;-73
2023/07/12 02:17:45;;;;;;;1999.90;999.90;;;;;;;23.64;98.80;97832.53;5094494;28;20546;-73
2023/07/12 02:20:12;;;;;;;1999.90;999.90;;;;;;;23.68;98.67;97838.97;5094160;28;20032;-74
2023/07/12 02:22:41;;;;;;;1999.90;999.90;;;;;;;23.74;97.41;97835.44;5094131;28;20024;-72
2023/07/12 02:25:08;;;;;;;1999.90;999.90;;;;;;;23.80;96.19;97821.91;5094139;28;20032;-73
2023/07/12 02:27:35;;;;;;;1999.90;999.90;;;;;;;23.83;95.66;97815.53;5094161;28;20064;-74
2023/07/12 02:30:00;;;;;;;1999.90;999.90;;;;;;;23.83;94.67;97809.97;5094223;28;20048;-73
2023/07/12 02:32:27;;;;;;;1999.90;999.90;;;;;;;23.90;94.02;97793.25;5094276;28;20025;-74
2023/07/12 02:34:53;;;;;;;1999.90;999.90;;;;;;;23.98;90.96;97801.31;5097722;28;20028;-74
2023/07/12 02:37:19;;;;;;;1999.90;999.90;;;;;;;24.25;90.32;97832.69;5097644;28;20090;-73
2023/07/12 02:39:45;;;;;;;1999.90;999.90;;;;;;;24.40;89.88;97858.78;5092603;28;20134;-73
2023/07/12 02:42:11;;;;;;;1999.90;999.90;;;;;;;24.41;88.93;97863.16;5094205;28;20024;-73
2023/07/12 02:44:40;;;;;;;1999.90;999.90;;;;;;;24.49;88.85;97865.63;5094329;28;20031;-74
2023/07/12 02:47:10;;;;;;;1999.90;999.90;;;;;;;24.58;89.03;97876.47;5093620;28;20044;-73
2023/07/12 02:49:39;;;;;;;1999.90;999.90;;;;;;;24.52;89.87;97876.03;5090455;28;20497;-73
2023/07/12 02:52:06;;;;;;;1999.90;999.90;;;;;;;24.53;89.99;97882.41;5093035;28;20020;-72
2023/07/12 02:54:32;;;;;;;1999.90;999.90;;;;;;;24.46;92.69;97894.34;5092845;28;20030;-75
2023/07/12 02:56:58;;;;;;;1999.90;999.90;;;;;;;24.53;93.66;97877.63;5090857;28;20024;-74
2023/07/12 02:59:24;;;;;;;1999.90;999.90;;;;;;;24.18;98.77;97876.56;5089959;28;20491;-73
2023/07/12 03:01:50;;;;;;;1999.90;999.90;;;;;;;23.89;100.00;97892.25;5092201;28;20024;-73
2023/07/12 03:04:16;;;;;;;1999.90;999.90;;;;;;;24.00;100.00;97924.69;5081626;28;20024;-75
2023/07/12 03:06:42;;;;;;;1999.90;999.90;;;;;;;23.99;100.00;97944.66;5071991;28;20050;-74
2023/07/12 03:09:07;;;;;;;1999.90;999.90;;;;;;;24.09;100.00;97915.97;5072587;28;20476;-74
2023/07/12 03:11:33;;;;;;;1999.90;999.90;;;;;;;24.21;100.00;97926.13;5072579;28;20033;-73
2023/07/12 03:13:58;;;;;;;1999.90;999.90;;;;;;;24.36;100.00;97961.41;5071174;28;20458;-73
2023/07/12 03:16:24;;;;;;;1999.90;999.90;;;;;;;24.26;100.00;97973.28;5082121;28;20074;-73
2023/07/12 03:18:50;;;;;;;1999.90;999.90;;;;;;;24.30;100.00;97972.16;5092701;28;20103;-73
2023/07/12 03:21:15;;;;;;;1999.90;999.90;;;;;;;24.32;100.00;97966.97;5092510;28;20009;-73
2023/07/12 03:23:42;;;;;;;1999.90;999.90;;;;;;;24.24;100.00;97992.47;5091378;28;20036;-74
2023/07/12 03:26:08;;;;;;;1999.90;999.90;;;;;;;23.93;100.00;98005.66;5092295;28;20020;-74
2023/07/12 03:28:34;;;;;;;1999.90;999.90;;;;;;;23.58;100.00;98046.34;5092180;28;20078;-76
2023/07/12 03:31:09;;;;;;;1999.90;999.90;;;;;;;23.17;100.00;98121.50;5093039;28;20055;-76
2023/07/12 03:33:34;;;;;;;1999.90;999.90;;;;;;;22.67;100.00;98183.19;5092412;28;20059;-74
2023/07/12 03:36:00;;;;;;;1999.90;999.90;;;;;;;21.97;100.00;98188.84;5092217;28;20020;-75
2023/07/12 03:38:26;;;;;;;1999.90;999.90;;;;;;;21.79;100.00;98179.25;5092225;28;20388;-74
2023/07/12 03:40:56;;;;;;;1999.90;999.90;;;;;;;21.71;100.00;98142.06;5092403;28;20495;-73
2023/07/12 03:43:22;;;;;;;1999.90;999.90;;;;;;;21.78;100.00;98130.28;5092141;28;20047;-76
2023/07/12 03:45:47;;;;;;;1999.90;999.90;;;;;;;21.59;100.00;98110.75;5092753;28;20430;-75
2023/07/12 03:48:13;;;;;;;1999.90;999.90;;;;;;;21.50;100.00;98121.28;5092514;28;20053;-74
2023/07/12 03:50:42;;;;;;;1999.90;999.90;;;;;;;21.53;100.00;98092.72;5092184;28;20031;-73
2023/07/12 03:53:08;;;;;;;1999.90;999.90;;;;;;;21.31;100.00;98078.31;5078019;28;20067;-73
2023/07/12 03:55:38;;;;;;;1999.90;999.90;;;;;;;21.28;100.00;98047.63;5071664;28;20028;-75
2023/07/12 03:58:04;;;;;;;1999.90;999.90;;;;;;;20.89;100.00;98018.88;5071691;28;20033;-75
2023/07/12 04:00:29;;;;;;;1999.90;999.90;;;;;;;21.13;100.00;98010.34;5071974;28;20028;-74
2023/07/12 04:02:54;;;;;;;1999.90;999.90;;;;;;;21.48;100.00;98031.78;5072210;28;20488;-75
2023/07/12 04:05:20;;;;;;;1999.90;999.90;;;;;;;21.77;100.00;98023.63;5071897;28;20030;-76
2023/07/12 04:07:46;;;;;;;1999.90;999.90;;;;;;;21.78;100.00;97997.41;5071734;28;20036;-75
2023/07/12 04:10:11;;;;;;;1999.90;999.90;;;;;;;21.74;100.00;97951.19;5071360;28;20020;-74
2023/07/12 04:12:37;;;;;;;1999.90;999.90;;;;;;;21.86;100.00;97948.22;5070835;28;20029;-74
2023/07/12 04:15:03;;;;;;;1999.90;999.90;;;;;;;22.03;100.00;97964.47;5072741;28;20111;-75
2023/07/12 04:17:28;;;;;;;1999.90;999.90;;;;;;;21.91;100.00;97938.78;5072426;28;20096;-74
2023/07/12 04:19:55;;;;;;;1999.90;999.90;;;;;;;21.68;100.00;97927.56;5071538;28;20119;-74
2023/07/12 04:22:20;;;;;;;1999.90;999.90;;;;;;;21.59;100.00;97927.81;5071408;28;20103;-74
2023/07/12 04:24:50;;;;;;;1999.90;999.90;;;;;;;21.45;100.00;97910.03;5071271;28;20111;-75
2023/07/12 04:27:15;;;;;;;1999.90;999.90;;;;;;;21.31;100.00;97950.31;5070030;28;20027;-74
2023/07/12 04:29:41;;;;;;;1999.90;999.90;;;;;;;21.14;100.00;97994.47;5070808;28;20044;-75
2023/07/12 04:32:07;;;;;;;1999.90;999.90;;;;;;;20.90;100.00;98078.06;5088380;28;20020;-74
2023/07/12 04:34:32;;;;;;;1999.90;999.90;;;;;;;20.67;100.00;98062.06;5090634;28;20034;-74
2023/07/12 04:36:57;;;;;;;1999.90;999.90;;;;;;;20.75;100.00;98060.25;5089430;28;20061;-75
2023/07/12 04:39:23;;;;;;;1999.90;999.90;;;;;;;20.68;100.00;98072.00;5095378;28;20072;-83
2023/07/12 04:41:48;;;;;;;1999.90;999.90;;;;;;;20.89;100.00;98071.72;5095698;28;20107;-81
2023/07/12 04:44:13;;;;;;;1999.90;999.90;;;;;;;20.74;100.00;98036.38;5097109;28;20027;-83
2023/07/12 04:46:39;;;;;;;1999.90;999.90;;;;;;;20.45;100.00;98040.44;5107514;28;20005;-85
2023/07/12 04:49:04;;;;;;;1999.90;999.90;;;;;;;20.35;100.00;98077.09;5099967;28;20028;-87
2023/07/12 04:51:29;;;;;;;1999.90;999.90;;;;;;;20.26;100.00;98071.69;5096617;28;20024;-88
2023/07/12 04:53:55;;;;;;;1999.90;999.90;;;;;;;20.32;100.00;98068.66;5098818;28;20036;-79
2023/07/12 04:56:20;;;;;;;1999.90;999.90;;;;;;;19.97;100.00;98047.03;5094160;28;20047;-79
2023/07/12 04:58:46;;;;;;;1999.90;999.90;;;;;;;19.86;100.00;98026.47;5094937;28;20059;-79
2023/07/12 05:01:11;;;;;;;1999.90;999.90;;;;;;;19.82;100.00;98005.34;5096301;28;20024;-81
2023/07/12 05:03:37;;;;;;;1999.90;999.90;;;;;;;19.71;100.00;97966.16;5097859;28;20016;-85
2023/07/12 05:06:02;;;;;;;1999.90;999.90;;;;;;;19.62;100.00;97940.53;5096340;28;20028;-78
2023/07/12 05:08:27;;;;;;;1999.90;999.90;;;;;;;19.56;100.00;97920.56;5097684;28;20024;-80
2023/07/12 05:10:58;;;;;;;1999.90;999.90;;;;;;;19.47;100.00;97886.63;5091982;28;20119;-82
2023/07/12 05:13:23;;;;;;;1999.90;999.90;;;;;;;19.43;100.00;97851.63;5098287;28;20043;-77
2023/07/12 05:15:52;;;;;;;1999.90;999.90;;;;;;;19.47;100.00;97810.91;5092761;28;20024;-83
2023/07/12 05:18:19;;;;;;;1999.90;999.90;;;;;;;19.48;100.00;97779.22;5093942;28;20024;-76
2023/07/12 05:20:45;;;;;;;1999.90;999.90;;;;;;;19.47;100.00;97816.47;5093617;28;20561;-84
2023/07/12 05:23:11;;;;;;;1999.90;999.90;;;;;;;19.61;100.00;97816.81;5090010;28;20024;-75
2023/07/12 05:25:36;;;;;;;1999.90;999.90;;;;;;;19.61;100.00;97798.19;5091368;28;20106;-76
2023/07/12 05:28:02;;;;;;;1999.90;999.90;;;;;;;19.61;100.00;97848.16;5090955;28;20032;-72
2023/07/12 05:30:31;;;;;;;1999.90;999.90;;;;;;;19.57;100.00;97857.56;5090189;28;20145;-76
2023/07/12 05:32:56;;;;;;;1999.90;999.90;;;;;;;19.70;100.00;97839.66;5089777;28;20423;-80
2023/07/12 05:35:22;;;;;;;1999.90;999.90;;;;;;;19.74;100.00;97818.34;5093496;28;20004;-80
2023/07/12 05:37:49;;;;;;;1999.90;999.90;;;;;;;19.47;100.00;97808.13;5091523;28;20017;-79
2023/07/12 05:40:15;;;;;;;1999.90;999.90;;;;;;;19.64;100.00;97807.78;5089853;28;20050;-78
2023/07/12 05:42:41;;;;;;;1999.90;999.90;;;;;;;19.71;100.00;97846.81;5093867;28;20032;-80
2023/07/12 05:45:09;;;;;;;1999.90;999.90;;;;;;;19.77;100.00;97848.16;5092369;28;20500;-80
2023/07/12 05:47:35;;;;;;;1999.90;999.90;;;;;;;19.82;100.00;97866.53;5095734;28;20020;-78
2023/07/12 05:50:00;;;;;;;1999.90;999.90;;;;;;;19.97;100.00;97885.16;5095285;28;20040;-80
2023/07/12 05:52:27;;;;;;;1999.90;999.90;;;;;;;19.90;100.00;97843.31;5091306;28;20028;-74
2023/07/12 05:54:54;;;;;;;1999.90;999.90;;;;;;;19.76;100.00;97825.16;5089123;28;20054;-75
2023/07/12 05:57:19;;;;;;;1999.90;999.90;;;;;;;19.76;100.00;97852.13;5090163;28;20145;-74
2023/07/12 05:59:45;;;;;;;1999.90;999.90;;;;;;;19.94;100.00;97881.13;5090224;28;20488;-75
2023/07/12 06:02:13;;;;;;;1999.90;999.90;;;;;;;20.10;100.00;97875.56;5088180;28;20079;-75
2023/07/12 06:04:38;;;;;;;1999.90;999.90;;;;;;;20.05;100.00;97881.38;5090588;28;20031;-75
2023/07/12 06:07:04;;;;;;;1999.90;999.90;;;;;;;20.18;100.00;97892.03;5089844;28;20028;-74
2023/07/12 06:09:29;;;;;;;1999.90;999.90;;;;;;;20.19;100.00;97874.22;5089844;28;20095;-73
2023/07/12 06:11:55;;;;;;;1999.90;999.90;;;;;;;20.28;100.00;97872.09;5090287;28;20449;-76
2023/07/12 06:14:20;;;;;;;1999.90;999.90;;;;;;;20.29;100.00;97859.81;5089920;28;20468;-74
2023/07/12 06:16:46;;;;;;;1999.90;999.90;;;;;;;20.34;100.00;97866.25;5090108;28;20107;-74
2023/07/12 06:19:11;;;;;;;1999.90;999.90;;;;;;;20.25;100.00;97847.78;5088753;28;20450;-76
2023/07/12 06:21:37;;;;;;;1999.90;999.90;;;;;;;20.34;100.00;97846.78;5089861;28;20020;-75
2023/07/12 06:24:03;;;;;;;1999.90;999.90;;;;;;;20.36;100.00;97880.59;5089814;28;20442;-74
2023/07/12 06:26:29;;;;;;;1999.90;999.90;;;;;;;20.29;100.00;97867.34;5088456;28;20031;-76
2023/07/12 06:28:54;;;;;;;1999.90;999.90;;;;;;;20.52;100.00;97850.78;5089503;28;20151;-76
2023/07/12 06:31:19;;;;;;;1999.90;999.90;;;;;;;20.68;100.00;97884.91;5089386;28;20035;-73
2023/07/12 06:33:45;;;;;;;1999.90;999.90;;;;;;;20.66;100.00;97884.47;5093294;28;20020;-74
2023/07/12 06:36:10;;;;;;;1999.90;999.90;;;;;;;20.75;100.00;97921.22;5093764;28;20040;-76
2023/07/12 06:38:35;;;;;;;1999.90;999.90;;;;;;;20.89;100.00;97893.75;5094062;28;20392;-73
2023/07/12 06:41:01;;;;;;;1999.90;999.90;;;;;;;20.79;100.00;97838.69;5093974;28;20354;-74
2023/07/12 06:43:26;;;;;;;1999.90;999.90;;;;;;;20.73;100.00;97807.59;5093969;28;20492;-75
2023/07/12 06:45:51;;;;;;;1999.90;999.90;;;;;;;20.71;100.00;97792.44;5093673;28;20028;-75
2023/07/12 06:48:17;;;;;;;1999.90;999.90;;;;;;;21.03;100.00;97805.00;5093555;28;20554;-73
2023/07/12 06:50:42;;;;;;;1999.90;999.90;;;;;;;21.22;100.00;97809.78;5092740;28;20028;-76
2023/07/12 06:53:08;;;;;;;1999.90;999.90;;;;;;;21.60;100.00;97829.19;5093855;28;20404;-75
2023/07/12 06:55:34;;;;;;;1999.90;999.90;;;;;;;21.84;100.00;97839.94;5096603;28;20026;-77
2023/07/12 06:58:00;;;;;;;1999.90;999.90;;;;;;;22.04;100.00;97835.16;5098498;28;20508;-73
2023/07/12 07:00:25;;;;;;;1999.90;999.90;;;;;;;22.38;100.00;97839.66;5092313;28;20062;-73
2023/07/12 07:02:51;;;;;;;1999.90;999.90;;;;;;;22.66;100.00;97808.63;5093911;28;20035;-74
2023/07/12 07:05:16;;;;;;;1999.90;999.90;;;;;;;22.72;100.00;97820.25;5093402;28;20039;-75
2023/07/12 07:07:41;;;;;;;1999.90;999.90;;;;;;;23.03;100.00;97833.00;5093182;28;20055;-74
2023/07/12 07:10:07;;;;;;;1999.90;999.90;;;;;;;23.42;100.00;97853.84;5091726;28;20043;-73
2023/07/12 07:12:32;;;;;;;1999.90;999.90;;;;;;;23.60;100.00;97873.56;5093225;28;20053;-74
2023/07/12 07:14:58;;;;;;;1999.90;999.90;;;;;;;24.04;100.00;97876.41;5093378;28;20806;-73
2023/07/12 07:17:23;;;;;;;1999.90;999.90;;;;;;;23.84;100.00;97862.66;5093079;28;20027;-75
2023/07/12 07:19:49;;;;;;;1999.90;999.90;;;;;;;24.44;100.00;97865.16;5091724;28;20357;-78
2023/07/12 07:22:14;;;;;;;1999.90;999.90;;;;;;;24.70;100.00;97875.34;5091585;28;20491;-75
2023/07/12 07:24:39;;;;;;;1999.90;999.90;;;;;;;24.82;100.00;97881.44;5091806;28;20376;-73
2023/07/12 07:27:05;;;;;;;1999.90;999.90;;;;;;;24.50;100.00;97883.19;5091846;28;20138;-73
2023/07/12 07:29:30;;;;;;;1999.90;999.90;;;;;;;24.52;100.00;97872.44;5092517;28;20143;-75
2023/07/12 07:31:56;;;;;;;1999.90;999.90;;;;;;;25.03;100.00;97872.34;5093064;28;20039;-73
2023/07/12 07:34:21;;;;;;;1999.90;999.90;;;;;;;25.59;100.00;97873.81;5092867;28;20091;-73
2023/07/12 07:36:46;;;;;;;1999.90;999.90;;;;;;;26.23;100.00;97872.75;5092929;28;20244;-74
2023/07/12 07:39:12;;;;;;;1999.90;999.90;;;;;;;26.57;100.00;97881.53;5093540;28;20500;-75
2023/07/12 07:41:37;;;;;;;1999.90;999.90;;;;;;;26.60;100.00;97887.16;5093756;28;20685;-73
2023/07/12 07:44:03;;;;;;;1999.90;999.90;;;;;;;26.86;100.00;97885.94;5093785;28;20024;-75
2023/07/12 07:46:28;;;;;;;1999.90;999.90;;;;;;;26.63;100.00;97886.34;5095959;28;20015;-76
2023/07/12 07:48:53;;;;;;;1999.90;999.90;;;;;;;26.59;100.00;97885.53;5092960;28;20028;-72
2023/07/12 07:51:19;;;;;;;1999.90;999.90;;;;;;;26.82;100.00;97893.56;5092717;28;20024;-74
2023/07/12 07:53:44;;;;;;;1999.90;999.90;;;;;;;27.37;100.00;97896.63;5093206;28;20138;-73
2023/07/12 07:56:11;;;;;;;1999.90;999.90;;;;;;;27.17;100.00;97895.47;5093012;28;20481;-74
2023/07/12 07:58:36;;;;;;;1999.90;999.90;;;;;;;26.75;100.00;97889.94;5091396;28;20488;-73
2023/07/12 08:01:01;;;;;;;1999.90;999.90;;;;;;;26.32;100.00;97875.94;5092485;28;20067;-73
2023/07/12 08:03:27;;;;;;;1999.90;999.90;;;;;;;26.70;100.00;97879.09;5092328;28;20107;-74
2023/07/12 08:05:52;;;;;;;1999.90;999.90;;;;;;;27.19;100.00;97878.22;5091208;28;20024;-73
2023/07/12 08:08:20;;;;;;;1999.90;999.90;;;;;;;27.11;100.00;97903.53;5092164;28;20050;-74
2023/07/12 08:10:46;;;;;;;1999.90;999.90;;;;;;;27.62;100.00;97911.41;5092221;28;20384;-74
2023/07/12 08:13:12;;;;;;;1999.90;999.90;;;;;;;28.61;100.00;97916.38;5092217;28;20034;-74
2023/07/12 08:15:37;;;;;;;1999.90;999.90;;;;;;;29.25;100.00;97912.16;5092454;28;20484;-74
2023/07/12 08:18:04;;;;;;;1999.90;999.90;;;;;;;28.76;100.00;97910.66;5092311;28;20077;-73
2023/07/12 08:20:29;;;;;;;1999.90;999.90;;;;;;;29.41;86.73;97910.38;5092604;28;20032;-74
2023/07/12 08:22:55;;;;;;;1999.90;999.90;;;;;;;29.20;82.44;97899.28;5091871;28;20119;-74
2023/07/12 08:25:21;;;;;;;1999.90;999.90;;;;;;;27.83;89.47;97901.22;5092643;28;20115;-74
2023/07/12 08:27:49;;;;;;;1999.90;999.90;;;;;;;27.70;90.98;97892.47;5090802;28;20035;-74
2023/07/12 08:30:14;;;;;;;1999.90;999.90;;;;;;;27.60;91.27;97907.38;5092036;28;20048;-75
2023/07/12 08:32:40;;;;;;;1999.90;999.90;;;;;;;27.08;97.39;97906.34;5092049;28;20078;-75
2023/07/12 08:35:06;;;;;;;1999.90;999.90;;;;;;;26.95;97.99;97907.97;5092507;28;20388;-74
2023/07/12 08:37:32;;;;;;;1999.90;999.90;;;;;;;26.51;99.41;97914.81;5091940;28;20481;-75
2023/07/12 08:39:57;;;;;;;1999.90;999.90;;;;;;;26.39;99.39;97920.84;5092445;28;20444;-74
2023/07/12 08:42:30;;;;;;;1999.90;999.90;;;;;;;25.85;100.00;97923.94;5090383;28;20370;-73
2023/07/12 08:44:58;;;;;;;1999.90;999.90;;;;;;;26.08;100.00;97922.38;5091381;28;20039;-75
2023/07/12 08:47:30;;;;;;;1999.90;999.90;;;;;;;26.98;98.51;97938.88;5091334;28;20115;-73
2023/07/12 08:49:57;;;;;;;1999.90;999.90;;;;;;;27.69;93.16;97951.94;5090224;28;20039;-75
2023/07/12 08:52:29;;;;;;;1999.90;999.90;;;;;;;27.99;90.01;97963.44;5092081;28;20024;-74
2023/07/12 08:54:57;;;;;;;1999.90;999.90;;;;;;;29.25;82.66;97971.34;5090393;28;20115;-73
2023/07/12 08:57:25;;;;;;;1999.90;999.90;;;;;;;29.91;77.94;97966.16;5091815;28;20032;-74
2023/07/12 09:00:07;;;;;;;1999.90;999.90;;;;;;;30.29;75.63;97962.00;5090694;28;20488;-76
2023/07/12 09:02:33;;;;;;;1999.90;999.90;;;;;;;31.69;70.00;97949.50;5092130;28;20055;-75
2023/07/12 09:05:09;;;;;;;1999.90;999.90;;;;;;;31.28;68.48;97927.25;5091816;28;20020;-76
2023/07/12 09:07:36;;;;;;;1999.90;999.90;;;;;;;30.97;68.54;97919.38;5093103;28;20153;-75
2023/07/12 09:10:03;;;;;;;1999.90;999.90;;;;;;;29.06;78.13;97900.28;5091811;28;20123;-74
2023/07/12 09:12:32;;;;;;;1999.90;999.90;;;;;;;27.53;89.14;97882.94;5091245;28;20553;-73
2023/07/12 09:15:02;;;;;;;1999.90;999.90;;;;;;;26.55;99.87;97946.50;5091351;28;20032;-73
2023/07/12 09:17:31;;;;;;;1999.90;999.90;;;;;;;26.36;100.00;97946.91;5091082;28;20087;-75
2023/07/12 09:19:59;;;;;;;1999.90;999.90;;;;;;;25.98;100.00;97979.25;5092351;28;20031;-73
2023/07/12 09:22:29;;;;;;;1999.90;999.90;;;;;;;25.84;100.00;97959.59;5092168;28;20027;-74
2023/07/12 09:24:56;;;;;;;1999.90;999.90;;;;;;;25.71;100.00;97952.72;5090711;28;20031;-73
2023/07/12 09:27:24;;;;;;;1999.90;999.90;;;;;;;25.90;100.00;97957.19;5091333;28;20392;-76
2023/07/12 09:30:09;;;;;;;1999.90;999.90;;;;;;;25.74;100.00;97970.75;5093246;28;20123;-76
2023/07/12 09:32:36;;;;;;;1999.90;999.90;;;;;;;25.53;100.00;97977.88;5090363;28;20051;-74
2023/07/12 09:35:21;;;;;;;1999.90;999.90;;;;;;;25.39;100.00;97958.16;5090781;28;20028;-74
2023/07/12 09:37:56;;;;;;;1999.90;999.90;;;;;;;24.98;100.00;97937.94;5090553;28;20035;-73
2023/07/12 09:40:23;;;;;;;1999.90;999.90;;;;;;;25.62;100.00;97943.91;5090732;28;20111;-74
2023/07/12 09:42:48;;;;;;;1999.90;999.90;;;;;;;27.12;100.00;97926.81;5090651;28;20052;-73
2023/07/12 09:45:14;;;;;;;1999.90;999.90;;;;;;;28.65;98.85;97961.44;5091677;28;20052;-73
2023/07/12 09:47:48;;;;;;;1999.90;999.90;;;;;;;30.17;85.19;97976.69;5091915;28;20556;-73
2023/07/12 09:51:02;;;;;;;1999.90;999.90;;;;;;;31.00;78.30;97986.34;5092024;28;20092;-72
2023/07/12 09:53:45;;;;;;;1999.90;999.90;;;;;;;32.18;70.43;98000.63;5089435;28;20068;-74
2023/07/12 09:56:54;;;;;;;1999.90;999.90;;;;;;;33.52;63.35;98020.03;5089101;28;20439;-73
2023/07/12 09:59:32;;;;;;;1999.90;999.90;;;;;;;34.18;59.01;98038.50;5087469;28;20051;-73
2023/07/12 10:02:15;;;;;;;1999.90;999.90;;;;;;;33.20;58.17;98046.44;5091744;28;20039;-75
2023/07/12 10:04:53;;;;;;;1999.90;999.90;;;;;;;32.99;58.14;98041.25;5094353;28;20028;-73
2023/07/12 10:07:53;;;;;;;1999.90;999.90;;;;;;;32.23;59.99;98056.78;5096516;28;20032;-74
2023/07/12 10:10:28;;;;;;;1999.90;999.90;;;;;;;31.42;63.19;98075.28;5097353;28;20035;-74
2023/07/12 10:13:13;;;;;;;1999.90;999.90;;;;;;;31.30;64.99;98073.84;5095978;28;20051;-75
2023/07/12 10:15:40;;;;;;;1999.90;999.90;;;;;;;30.65;68.88;98083.75;5097309;28;20476;-74
2023/07/12 10:18:15;;;;;;;1999.90;999.90;;;;;;;31.11;68.77;98091.53;5096843;28;20048;-73
2023/07/12 10:20:41;;;;;;;1999.90;999.90;;;;;;;30.87;69.58;98095.53;5094839;28;20028;-75
2023/07/12 10:23:10;;;;;;;1999.90;999.90;;;;;;;31.08;68.79;98095.22;5094455;28;22035;-74
2023/07/12 10:25:37;;;;;;;1999.90;999.90;;;;;;;31.29;67.49;98126.00;5093969;28;20030;-74
2023/07/12 10:28:17;;;;;;;1999.90;999.90;;;;;;;30.72;63.02;98124.00;5093966;28;20034;-75
2023/07/12 10:30:48;;;;;;;1999.90;999.90;;;;;;;29.94;58.40;98117.72;5095001;28;20089;-72
2023/07/12 10:33:22;;;;;;;1999.90;999.90;;;;;;;29.79;57.38;98119.81;5094457;28;20028;-73
2023/07/12 10:35:53;;;;;;;1999.90;999.90;;;;;;;29.40;57.82;98116.59;5093009;28;20091;-73
2023/07/12 10:38:21;;;;;;;1999.90;999.90;;;;;;;28.98;58.09;98107.22;5094472;28;20085;-73
2023/07/12 10:41:10;;;;;;;1999.90;999.90;;;;;;;28.86;57.68;98110.53;5094083;28;20058;-73
2023/07/12 10:43:40;;;;;;;1999.90;999.90;;;;;;;28.74;58.22;98101.75;5093995;28;20123;-74
2023/07/12 10:46:15;;;;;;;1999.90;999.90;;;;;;;28.39;58.20;98089.47;5094115;28;20024;-73
2023/07/12 10:48:46;;;;;;;;;;;;;;;28.28;59.11;98093.53;5094535;28;20012;-73
2023/07/12 10:51:18;;;;;;;1999.90;999.90;;;;;;;28.28;57.91;98097.16;5092731;28;19995;-72
2023/07/12 10:53:52;;;;;;;1999.90;999.90;;;;;;;28.35;58.52;98108.38;5094199;28;20028;-74